createdAt,value
2016-04-18T00:00:35.130Z,1017.92
2016-04-18T00:01:35.132Z,1017.97
2016-04-18T00:02:35.151Z,1017.95
2016-04-18T00:03:35.154Z,1017.94
2016-04-18T00:04:35.172Z,1017.92
2016-04-18T00:05:35.316Z,1017.92
2016-04-18T00:06:47.946Z,1017.94
2016-04-18T00:07:35.227Z,1017.91
2016-04-18T00:08:54.514Z,1017.93
2016-04-18T00:09:35.232Z,1017.96
2016-04-18T00:11:50.412Z,1017.98
2016-04-18T00:12:50.430Z,1017.94
2016-04-18T00:14:03.167Z,1017.97
2016-04-18T00:14:50.473Z,1017.96
2016-04-18T00:16:03.268Z,1017.99
2016-04-18T00:16:50.579Z,1018.01
2016-04-18T00:17:50.641Z,1018.02
2016-04-18T00:19:00.218Z,1018.04
2016-04-18T00:20:03.875Z,1018
2016-04-18T00:21:06.565Z,1018.01
2016-04-18T00:22:00.333Z,1018.02
2016-04-18T00:23:00.351Z,1017.96
2016-04-18T00:24:00.386Z,1017.97
2016-04-18T00:25:00.399Z,1017.98
2016-04-18T00:26:00.422Z,1017.98
2016-04-18T00:27:00.634Z,1017.95
2016-04-18T00:28:00.455Z,1017.95
2016-04-18T00:29:13.214Z,1017.97
2016-04-18T00:30:00.501Z,1017.94
2016-04-18T00:31:19.709Z,1017.97
2016-04-18T00:32:00.526Z,1017.99
2016-04-18T00:33:19.734Z,1017.98
2016-04-18T00:34:00.550Z,1017.96
2016-04-18T00:35:26.242Z,1017.98
2016-04-18T00:36:10.871Z,1017.96
2016-04-18T00:37:10.889Z,1017.96
2016-04-18T00:38:20.425Z,1017.94
2016-04-18T00:39:20.475Z,1017.94
2016-04-18T00:40:20.446Z,1017.94
2016-04-18T00:41:33.199Z,1017.97
2016-04-18T00:42:20.485Z,1017.95
2016-04-18T00:43:20.503Z,1017.97
2016-04-18T00:44:20.506Z,1017.99
2016-04-18T00:45:33.275Z,1017.98
2016-04-18T00:46:20.527Z,1017.97
2016-04-18T00:47:39.749Z,1018.02
2016-04-18T00:48:20.563Z,1018.02
2016-04-18T00:49:20.598Z,1018.02
2016-04-18T00:50:33.320Z,1018.02
2016-04-18T00:52:39.825Z,1018.02
2016-04-18T00:53:20.640Z,1018
2016-04-18T00:54:20.643Z,1018.02
2016-04-18T00:55:26.786Z,1018.03
2016-04-18T00:56:23.758Z,1018.01
2016-04-18T00:57:36.510Z,1018
2016-04-18T00:58:23.794Z,1018.02
2016-04-18T00:59:23.797Z,1018.03
2016-04-18T01:00:26.863Z,1018.02
2016-04-18T01:01:26.880Z,1018.05
2016-04-18T01:02:28.305Z,1018.05
2016-04-18T01:03:33.182Z,1018.05
2016-04-18T01:04:26.920Z,1018.1
2016-04-18T01:05:26.938Z,1018.09
2016-04-18T01:06:26.941Z,1018.08
2016-04-18T01:07:26.959Z,1018.08
2016-04-18T01:08:39.712Z,1018.05
2016-04-18T01:09:26.979Z,1018.06
2016-04-18T01:10:26.998Z,1018.07
2016-04-18T01:11:27.001Z,1018.08
2016-04-18T01:12:27.020Z,1018.1
2016-04-18T01:13:42.944Z,1018.09
2016-04-18T01:14:30.212Z,1018.08
2016-04-18T01:15:30.245Z,1018.11
2016-04-18T01:16:30.248Z,1018.13
2016-04-18T01:17:30.861Z,1018.12
2016-04-18T01:18:30.285Z,1018.11
2016-04-18T01:19:30.289Z,1018.16
2016-04-18T01:20:30.291Z,1018.23
2016-04-18T01:21:30.918Z,1018.22
2016-04-18T01:22:30.328Z,1018.25
2016-04-18T01:23:31.767Z,1018.25
2016-04-18T01:24:30.363Z,1018.25
2016-04-18T01:25:30.367Z,1018.28
2016-04-18T01:26:30.370Z,1018.29
2016-04-18T01:27:43.121Z,1018.24
2016-04-18T01:28:30.406Z,1018.25
2016-04-18T01:29:30.408Z,1018.27
2016-04-18T01:31:45.664Z,1018.29
2016-04-18T01:32:45.682Z,1018.26
2016-04-18T01:33:51.969Z,1018.28
2016-04-18T01:34:58.441Z,1018.3
2016-04-18T01:35:45.722Z,1018.33
2016-04-18T01:36:45.740Z,1018.29
2016-04-18T01:37:45.743Z,1018.32
2016-04-18T01:38:45.761Z,1018.36
2016-04-18T01:39:45.764Z,1018.35
2016-04-18T01:40:45.781Z,1018.36
2016-04-18T01:41:45.801Z,1018.29
2016-04-18T01:42:45.803Z,1018.33
2016-04-18T01:43:45.821Z,1018.29
2016-04-18T01:44:45.824Z,1018.28
2016-04-18T01:45:45.859Z,1018.28
2016-04-18T01:46:45.861Z,1018.24
2016-04-18T01:47:45.879Z,1018.21
2016-04-18T01:48:45.881Z,1018.28
2016-04-18T01:49:45.884Z,1018.25
2016-04-18T01:50:45.918Z,1018.26
2016-04-18T01:51:45.921Z,1018.25
2016-04-18T01:52:45.924Z,1018.28
2016-04-18T01:53:58.694Z,1018.27
2016-04-18T01:54:45.960Z,1018.24
2016-04-18T01:55:45.978Z,1018.24
2016-04-18T01:56:52.266Z,1018.21
2016-04-18T01:57:46.000Z,1018.24
2016-04-18T01:58:46.018Z,1018.24
2016-04-18T01:59:58.757Z,1018.22
2016-04-18T02:00:46.038Z,1018.24
2016-04-18T02:02:11.732Z,1018.25
2016-04-18T02:02:55.593Z,1018.28
2016-04-18T02:03:55.613Z,1018.27
2016-04-18T02:04:55.615Z,1018.27
2016-04-18T02:05:55.632Z,1018.25
2016-04-18T02:06:55.651Z,1018.28
2016-04-18T02:07:55.764Z,1018.29
2016-04-18T02:09:08.423Z,1018.25
2016-04-18T02:10:01.956Z,1018.26
2016-04-18T02:10:55.709Z,1018.25
2016-04-18T02:11:55.712Z,1018.24
2016-04-18T02:12:55.715Z,1018.25
2016-04-18T02:13:55.733Z,1018.29
2016-04-18T02:14:55.736Z,1018.26
2016-04-18T02:15:55.754Z,1018.25
2016-04-18T02:17:02.037Z,1018.27
2016-04-18T02:18:14.978Z,1018.28
2016-04-18T02:18:55.809Z,1018.31
2016-04-18T02:19:55.828Z,1018.3
2016-04-18T02:20:55.830Z,1018.32
2016-04-18T02:21:55.833Z,1018.28
2016-04-18T02:23:08.585Z,1018.29
2016-04-18T02:23:55.853Z,1018.27
2016-04-18T02:24:55.871Z,1018.26
2016-04-18T02:25:55.891Z,1018.28
2016-04-18T02:26:55.908Z,1018.22
2016-04-18T02:27:55.927Z,1018.25
2016-04-18T02:29:08.664Z,1018.29
2016-04-18T02:29:55.932Z,1018.27
2016-04-18T02:31:15.247Z,1018.35
2016-04-18T02:31:55.969Z,1018.34
2016-04-18T02:32:55.971Z,1018.39
2016-04-18T02:33:55.990Z,1018.38
2016-04-18T02:34:56.008Z,1018.38
2016-04-18T02:35:56.010Z,1018.36
2016-04-18T02:36:56.029Z,1018.37
2016-04-18T02:37:56.047Z,1018.41
2016-04-18T02:38:56.051Z,1018.36
2016-04-18T02:39:56.069Z,1018.36
2016-04-18T02:40:56.071Z,1018.34
2016-04-18T02:41:56.090Z,1018.35
2016-04-18T02:42:56.107Z,1018.37
2016-04-18T02:43:56.109Z,1018.32
2016-04-18T02:45:15.331Z,1018.33
2016-04-18T02:45:59.209Z,1018.34
2016-04-18T02:46:59.353Z,1018.36
2016-04-18T02:47:59.245Z,1018.37
2016-04-18T02:48:59.295Z,1018.35
2016-04-18T02:49:59.251Z,1018.35
2016-04-18T02:50:59.270Z,1018.42
2016-04-18T02:51:59.288Z,1018.41
2016-04-18T02:53:00.713Z,1018.39
2016-04-18T02:54:24.981Z,1018.36
2016-04-18T02:55:02.359Z,1018.31
2016-04-18T02:55:59.346Z,1018.33
2016-04-18T02:57:12.083Z,1018.28
2016-04-18T02:57:59.366Z,1018.3
2016-04-18T02:58:59.386Z,1018.29
2016-04-18T02:59:59.387Z,1018.27
2016-04-18T03:00:59.406Z,1018.26
2016-04-18T03:01:59.424Z,1018.26
2016-04-18T03:02:59.427Z,1018.26
2016-04-18T03:03:59.507Z,1018.29
2016-04-18T03:04:59.448Z,1018.29
2016-04-18T03:05:59.513Z,1018.27
2016-04-18T03:06:59.485Z,1018.28
2016-04-18T03:07:59.488Z,1018.32
2016-04-18T03:08:59.507Z,1018.35
2016-04-18T03:09:59.524Z,1018.33
2016-04-18T03:10:59.543Z,1018.34
2016-04-18T03:12:12.295Z,1018.33
2016-04-18T03:13:00.157Z,1018.34
2016-04-18T03:13:59.566Z,1018.34
2016-04-18T03:14:59.585Z,1018.39
2016-04-18T03:15:59.587Z,1018.4
2016-04-18T03:16:59.606Z,1018.42
2016-04-18T03:18:00.234Z,1018.39
2016-04-18T03:18:59.689Z,1018.42
2016-04-18T03:20:12.379Z,1018.41
2016-04-18T03:20:59.678Z,1018.38
2016-04-18T03:21:59.681Z,1018.34
2016-04-18T03:22:59.684Z,1018.33
2016-04-18T03:24:09.234Z,1018.31
2016-04-18T03:25:09.236Z,1018.32
2016-04-18T03:26:09.255Z,1018.33
2016-04-18T03:27:09.257Z,1018.35
2016-04-18T03:28:09.275Z,1018.31
2016-04-18T03:29:31.559Z,1018.34
2016-04-18T03:30:18.843Z,1018.36
2016-04-18T03:31:18.846Z,1018.32
2016-04-18T03:32:18.849Z,1018.4
2016-04-18T03:33:44.539Z,1018.38
2016-04-18T03:34:28.401Z,1018.38
2016-04-18T03:35:28.419Z,1018.38
2016-04-18T03:36:28.421Z,1018.37
2016-04-18T03:37:28.440Z,1018.41
2016-04-18T03:38:28.459Z,1018.43
2016-04-18T03:39:28.477Z,1018.42
2016-04-18T03:40:28.480Z,1018.39
2016-04-18T03:41:28.498Z,1018.38
2016-04-18T03:42:28.516Z,1018.39
2016-04-18T03:43:29.129Z,1018.41
2016-04-18T03:44:28.537Z,1018.42
2016-04-18T03:45:29.149Z,1018.41
2016-04-18T03:46:28.558Z,1018.44
2016-04-18T03:47:37.874Z,1018.45
2016-04-18T03:48:57.301Z,1018.44
2016-04-18T03:49:53.928Z,1018.41
2016-04-18T03:50:53.931Z,1018.4
2016-04-18T03:52:00.215Z,1018.39
2016-04-18T03:53:00.233Z,1018.37
2016-04-18T03:53:53.970Z,1018.41
2016-04-18T03:55:13.207Z,1018.39
2016-04-18T03:55:53.991Z,1018.42
2016-04-18T03:56:54.010Z,1018.42
2016-04-18T03:57:54.028Z,1018.43
2016-04-18T04:00:09.221Z,1018.45
2016-04-18T04:01:09.239Z,1018.44
2016-04-18T04:02:15.508Z,1018.46
2016-04-18T04:03:09.261Z,1018.48
2016-04-18T04:04:28.482Z,1018.5
2016-04-18T04:05:12.391Z,1018.51
2016-04-18T04:06:12.409Z,1018.5
2016-04-18T04:07:18.693Z,1018.52
2016-04-18T04:08:12.430Z,1018.55
2016-04-18T04:09:12.448Z,1018.53
2016-04-18T04:10:12.466Z,1018.59
2016-04-18T04:11:18.735Z,1018.57
2016-04-18T04:12:12.488Z,1018.55
2016-04-18T04:13:25.240Z,1018.57
2016-04-18T04:14:12.509Z,1018.53
2016-04-18T04:15:12.527Z,1018.57
2016-04-18T04:16:12.545Z,1018.54
2016-04-18T04:17:25.282Z,1018.55
2016-04-18T04:18:25.301Z,1018.58
2016-04-18T04:19:12.584Z,1018.52
2016-04-18T04:20:38.275Z,1018.52
2016-04-18T04:21:22.199Z,1018.6
2016-04-18T04:22:22.218Z,1018.55
2016-04-18T04:23:22.220Z,1018.59
2016-04-18T04:24:22.239Z,1018.6
2016-04-18T04:25:22.257Z,1018.58
2016-04-18T04:26:22.291Z,1018.6
2016-04-18T04:27:22.294Z,1018.55
2016-04-18T04:28:22.296Z,1018.52
2016-04-18T04:29:22.315Z,1018.53
2016-04-18T04:30:22.333Z,1018.56
2016-04-18T04:31:22.336Z,1018.49
2016-04-18T04:32:22.354Z,1018.54
2016-04-18T04:33:22.372Z,1018.54
2016-04-18T04:34:22.391Z,1018.52
2016-04-18T04:35:22.408Z,1018.53
2016-04-18T04:36:22.411Z,1018.51
2016-04-18T04:37:22.429Z,1018.57
2016-04-18T04:38:22.448Z,1018.55
2016-04-18T04:39:22.451Z,1018.57
2016-04-18T04:40:22.469Z,1018.54
2016-04-18T04:41:22.488Z,1018.56
2016-04-18T04:42:22.506Z,1018.56
2016-04-18T04:43:22.524Z,1018.54
2016-04-18T04:44:22.526Z,1018.56
2016-04-18T04:45:35.279Z,1018.58
2016-04-18T04:46:22.562Z,1018.57
2016-04-18T04:47:41.783Z,1018.56
2016-04-18T04:48:22.583Z,1018.53
2016-04-18T04:49:48.274Z,1018.56
2016-04-18T04:50:33.573Z,1018.58
2016-04-18T04:51:33.592Z,1018.6
2016-04-18T04:52:33.594Z,1018.62
2016-04-18T04:53:33.613Z,1018.57
2016-04-18T04:54:33.709Z,1018.63
2016-04-18T04:55:33.649Z,1018.65
2016-04-18T04:56:33.668Z,1018.62
2016-04-18T04:57:46.405Z,1018.67
2016-04-18T04:58:46.423Z,1018.66
2016-04-18T04:59:33.707Z,1018.74
2016-04-18T05:00:46.444Z,1018.73
2016-04-18T05:01:33.727Z,1018.73
2016-04-18T05:02:52.951Z,1018.78
2016-04-18T05:03:33.764Z,1018.77
2016-04-18T05:05:48.942Z,1018.82
2016-04-18T05:06:48.976Z,1018.82
2016-04-18T05:07:48.979Z,1018.82
2016-04-18T05:08:48.996Z,1018.8
2016-04-18T05:09:49.015Z,1018.82
2016-04-18T05:10:49.017Z,1018.79
2016-04-18T05:11:49.051Z,1018.83
2016-04-18T05:13:01.634Z,1018.82
2016-04-18T05:13:58.606Z,1018.84
2016-04-18T05:15:04.890Z,1018.86
2016-04-18T05:15:58.643Z,1018.83
2016-04-18T05:16:58.661Z,1018.83
2016-04-18T05:17:58.680Z,1018.86
2016-04-18T05:19:11.432Z,1018.83
2016-04-18T05:20:11.435Z,1018.89
2016-04-18T05:20:58.719Z,1018.88
2016-04-18T05:22:17.941Z,1018.87
2016-04-18T05:23:17.943Z,1018.9
2016-04-18T05:23:58.774Z,1018.9
2016-04-18T05:25:14.011Z,1018.88
2016-04-18T05:26:14.013Z,1018.89
2016-04-18T05:27:14.032Z,1018.87
2016-04-18T05:28:14.049Z,1018.88
2016-04-18T05:29:14.052Z,1018.89
2016-04-18T05:30:14.077Z,1018.86
2016-04-18T05:31:14.096Z,1018.9
2016-04-18T05:32:14.099Z,1018.87
2016-04-18T05:33:26.851Z,1018.87
2016-04-18T05:34:14.744Z,1018.88
2016-04-18T05:35:14.152Z,1018.85
2016-04-18T05:36:14.171Z,1018.87
2016-04-18T05:37:14.190Z,1018.87
2016-04-18T05:38:14.193Z,1018.88
2016-04-18T05:39:14.211Z,1018.88
2016-04-18T05:40:14.229Z,1018.85
2016-04-18T05:41:14.248Z,1018.89
2016-04-18T05:42:27.000Z,1018.87
2016-04-18T05:43:14.284Z,1018.87
2016-04-18T05:44:14.286Z,1018.88
2016-04-18T05:45:14.304Z,1018.91
2016-04-18T05:46:14.323Z,1018.88
2016-04-18T05:47:14.341Z,1018.91
2016-04-18T05:48:14.360Z,1018.91
2016-04-18T05:49:14.378Z,1018.9
2016-04-18T05:50:14.381Z,1019
2016-04-18T05:51:14.399Z,1018.96
2016-04-18T05:52:14.433Z,1018.99
2016-04-18T05:53:14.436Z,1019
2016-04-18T05:54:14.454Z,1019.06
2016-04-18T05:55:14.473Z,1019.05
2016-04-18T05:56:14.492Z,1019.07
2016-04-18T05:57:14.509Z,1019.02
2016-04-18T05:58:14.528Z,1019.08
2016-04-18T05:59:14.530Z,1019.05
2016-04-18T06:00:14.564Z,1019.05
2016-04-18T06:01:14.566Z,1019.07
2016-04-18T06:02:14.600Z,1019.1
2016-04-18T06:03:14.603Z,1019.1
2016-04-18T06:04:14.622Z,1019.09
2016-04-18T06:05:14.641Z,1019.06
2016-04-18T06:06:14.643Z,1019.1
2016-04-18T06:07:14.661Z,1019.09
2016-04-18T06:08:14.820Z,1019.07
2016-04-18T06:09:14.698Z,1019.12
2016-04-18T06:10:14.715Z,1019.11
2016-04-18T06:11:14.734Z,1019.13
2016-04-18T06:12:14.752Z,1019.13
2016-04-18T06:13:14.771Z,1019.11
2016-04-18T06:14:14.774Z,1019.16
2016-04-18T06:15:28.042Z,1019.15
2016-04-18T06:16:14.826Z,1019.2
2016-04-18T06:17:14.828Z,1019.18
2016-04-18T06:18:14.879Z,1019.24
2016-04-18T06:19:14.865Z,1019.15
2016-04-18T06:20:14.899Z,1019.25
2016-04-18T06:21:14.901Z,1019.25
2016-04-18T06:22:14.920Z,1019.24
2016-04-18T06:23:14.938Z,1019.24
2016-04-18T06:24:14.972Z,1019.26
2016-04-18T06:25:14.975Z,1019.26
2016-04-18T06:26:14.994Z,1019.26
2016-04-18T06:27:14.997Z,1019.27
2016-04-18T06:28:15.030Z,1019.24
2016-04-18T06:29:15.048Z,1019.27
2016-04-18T06:30:15.770Z,1019.25
2016-04-18T06:31:15.069Z,1019.25
2016-04-18T06:32:15.088Z,1019.26
2016-04-18T06:33:15.105Z,1019.25
2016-04-18T06:34:15.125Z,1019.25
2016-04-18T06:35:15.158Z,1019.21
2016-04-18T06:36:15.161Z,1019.25
2016-04-18T06:37:15.180Z,1019.29
2016-04-18T06:38:15.197Z,1019.27
2016-04-18T06:39:15.215Z,1019.29
2016-04-18T06:40:15.235Z,1019.26
2016-04-18T06:41:15.268Z,1019.29
2016-04-18T06:42:15.271Z,1019.3
2016-04-18T06:43:15.352Z,1019.3
2016-04-18T06:44:28.042Z,1019.29
2016-04-18T06:45:15.341Z,1019.29
2016-04-18T06:46:15.328Z,1019.35
2016-04-18T06:47:15.346Z,1019.31
2016-04-18T06:48:15.365Z,1019.27
2016-04-18T06:49:15.587Z,1019.24
2016-04-18T06:50:28.137Z,1019.18
2016-04-18T06:51:28.154Z,1019.25
2016-04-18T06:52:34.657Z,1019.22
2016-04-18T06:53:15.456Z,1019.27
2016-04-18T06:54:15.475Z,1019.26
2016-04-18T06:55:25.134Z,1019.27
2016-04-18T06:56:25.168Z,1019.3
2016-04-18T06:57:25.186Z,1019.28
2016-04-18T06:58:25.205Z,1019.26
2016-04-18T06:59:25.207Z,1019.29
2016-04-18T07:00:25.335Z,1019.28
2016-04-18T07:01:25.243Z,1019.28
2016-04-18T07:02:25.277Z,1019.3
2016-04-18T07:03:25.280Z,1019.25
2016-04-18T07:04:25.298Z,1019.22
2016-04-18T07:05:25.316Z,1019.29
2016-04-18T07:06:25.335Z,1019.27
2016-04-18T07:07:25.354Z,1019.26
2016-04-18T07:08:25.372Z,1019.26
2016-04-18T07:09:25.391Z,1019.23
2016-04-18T07:10:25.408Z,1019.21
2016-04-18T07:11:25.427Z,1019.23
2016-04-18T07:12:38.179Z,1019.25
2016-04-18T07:13:25.573Z,1019.3
2016-04-18T07:14:25.481Z,1019.29
2016-04-18T07:15:25.501Z,1019.25
2016-04-18T07:16:25.518Z,1019.26
2016-04-18T07:17:25.537Z,1019.25
2016-04-18T07:18:25.554Z,1019.23
2016-04-18T07:19:25.573Z,1019.2
2016-04-18T07:20:25.591Z,1019.21
2016-04-18T07:21:25.601Z,1019.21
2016-04-18T07:22:25.619Z,1019.24
2016-04-18T07:23:25.638Z,1019.21
2016-04-18T07:24:25.656Z,1019.26
2016-04-18T07:25:25.675Z,1019.26
2016-04-18T07:26:31.974Z,1019.27
2016-04-18T07:27:25.711Z,1019.29
2016-04-18T07:28:25.730Z,1019.24
2016-04-18T07:29:25.747Z,1019.27
2016-04-18T07:30:32.032Z,1019.26
2016-04-18T07:31:25.785Z,1019.31
2016-04-18T07:32:45.005Z,1019.32
2016-04-18T07:33:25.821Z,1019.3
2016-04-18T07:34:25.840Z,1019.28
2016-04-18T07:35:25.857Z,1019.32
2016-04-18T07:36:25.860Z,1019.31
2016-04-18T07:37:25.878Z,1019.27
2016-04-18T07:38:25.912Z,1019.36
2016-04-18T07:39:25.931Z,1019.34
2016-04-18T07:40:25.964Z,1019.34
2016-04-18T07:41:25.967Z,1019.39
2016-04-18T07:42:25.970Z,1019.38
2016-04-18T07:43:25.988Z,1019.36
2016-04-18T07:44:26.022Z,1019.34
2016-04-18T07:45:26.025Z,1019.35
2016-04-18T07:46:26.058Z,1019.39
2016-04-18T07:47:26.077Z,1019.38
2016-04-18T07:48:26.080Z,1019.38
2016-04-18T07:49:26.098Z,1019.38
2016-04-18T07:50:32.383Z,1019.41
2016-04-18T07:51:26.136Z,1019.4
2016-04-18T07:52:26.169Z,1019.41
2016-04-18T07:53:26.172Z,1019.39
2016-04-18T07:54:26.189Z,1019.45
2016-04-18T07:55:26.208Z,1019.48
2016-04-18T07:56:38.960Z,1019.49
2016-04-18T07:57:26.244Z,1019.41
2016-04-18T07:58:51.935Z,1019.43
2016-04-18T07:59:35.797Z,1019.39
2016-04-18T08:00:35.877Z,1019.44
2016-04-18T08:01:35.849Z,1019.41
2016-04-18T08:02:35.867Z,1019.4
2016-04-18T08:03:48.605Z,1019.42
2016-04-18T08:04:35.888Z,1019.41
2016-04-18T08:06:01.628Z,1019.45
2016-04-18T08:06:35.940Z,1019.46
2016-04-18T08:07:35.959Z,1019.48
2016-04-18T08:08:35.962Z,1019.53
2016-04-18T08:09:42.262Z,1019.55
2016-04-18T08:10:37.420Z,1019.53
2016-04-18T08:11:36.032Z,1019.55
2016-04-18T08:12:36.034Z,1019.54
2016-04-18T08:13:36.053Z,1019.56
2016-04-18T08:14:36.087Z,1019.58
2016-04-18T08:15:36.105Z,1019.55
2016-04-18T08:16:36.123Z,1019.55
2016-04-18T08:17:36.126Z,1019.5
2016-04-18T08:18:36.161Z,1019.55
2016-04-18T08:19:36.178Z,1019.53
2016-04-18T08:20:36.198Z,1019.57
2016-04-18T08:21:36.216Z,1019.59
2016-04-18T08:22:36.250Z,1019.52
2016-04-18T08:23:36.253Z,1019.55
2016-04-18T08:24:36.271Z,1019.55
2016-04-18T08:25:36.289Z,1019.55
2016-04-18T08:26:36.307Z,1019.51
2016-04-18T08:27:49.060Z,1019.52
2016-04-18T08:28:36.359Z,1019.56
2016-04-18T08:29:55.565Z,1019.5
2016-04-18T08:30:36.396Z,1019.5
2016-04-18T08:31:36.414Z,1019.49
2016-04-18T08:32:36.433Z,1019.52
2016-04-18T08:33:36.452Z,1019.52
2016-04-18T08:34:36.469Z,1019.49
2016-04-18T08:35:36.471Z,1019.52
2016-04-18T08:36:36.507Z,1019.6
2016-04-18T08:37:36.524Z,1019.52
2016-04-18T08:38:36.543Z,1019.53
2016-04-18T08:39:36.561Z,1019.47
2016-04-18T08:40:36.579Z,1019.56
2016-04-18T08:41:36.598Z,1019.55
2016-04-18T08:42:36.615Z,1019.54
2016-04-18T08:43:36.650Z,1019.55
2016-04-18T08:44:36.653Z,1019.5
2016-04-18T08:45:36.687Z,1019.46
2016-04-18T08:46:36.689Z,1019.53
2016-04-18T08:47:36.707Z,1019.54
2016-04-18T08:48:36.741Z,1019.61
2016-04-18T08:49:36.744Z,1019.54
2016-04-18T08:50:36.778Z,1019.53
2016-04-18T08:51:36.781Z,1019.5
2016-04-18T08:52:36.815Z,1019.56
2016-04-18T08:53:36.817Z,1019.6
2016-04-18T08:54:36.851Z,1019.59
2016-04-18T08:55:36.870Z,1019.54
2016-04-18T08:56:36.888Z,1019.56
2016-04-18T08:57:36.905Z,1019.55
2016-04-18T08:58:36.924Z,1019.52
2016-04-18T08:59:36.943Z,1019.59
2016-04-18T09:00:36.960Z,1019.59
2016-04-18T09:01:36.995Z,1019.59
2016-04-18T09:02:36.997Z,1019.64
2016-04-18T09:03:37.125Z,1019.65
2016-04-18T09:04:37.034Z,1019.62
2016-04-18T09:05:37.116Z,1019.6
2016-04-18T09:06:37.087Z,1019.61
2016-04-18T09:07:37.105Z,1019.54
2016-04-18T09:08:37.124Z,1019.55
2016-04-18T09:09:37.142Z,1019.51
2016-04-18T09:10:37.175Z,1019.52
2016-04-18T09:11:37.178Z,1019.53
2016-04-18T09:12:37.213Z,1019.57
2016-04-18T09:13:37.230Z,1019.53
2016-04-18T09:14:37.249Z,1019.5
2016-04-18T09:15:37.267Z,1019.55
2016-04-18T09:16:37.285Z,1019.54
2016-04-18T09:17:37.303Z,1019.6
2016-04-18T09:18:37.369Z,1019.6
2016-04-18T09:19:50.090Z,1019.6
2016-04-18T09:20:37.359Z,1019.58
2016-04-18T09:21:37.417Z,1019.61
2016-04-18T09:22:37.478Z,1019.53
2016-04-18T09:23:37.554Z,1019.58
2016-04-18T09:24:50.333Z,1019.56
2016-04-18T09:25:37.673Z,1019.53
2016-04-18T09:27:03.408Z,1019.52
2016-04-18T09:27:47.283Z,1019.5
2016-04-18T09:28:47.317Z,1019.49
2016-04-18T09:29:47.350Z,1019.49
2016-04-18T09:30:47.385Z,1019.53
2016-04-18T09:31:53.694Z,1019.53
2016-04-18T09:32:47.467Z,1019.53
2016-04-18T09:34:06.685Z,1019.55
2016-04-18T09:34:47.498Z,1019.53
2016-04-18T09:37:29.032Z,1019.51
2016-04-18T09:38:03.382Z,1019.55
2016-04-18T09:39:03.432Z,1019.55
2016-04-18T09:40:03.437Z,1019.49
2016-04-18T09:41:03.410Z,1019.49
2016-04-18T09:42:18.758Z,1019.48
2016-04-18T09:43:18.776Z,1019.52
2016-04-18T09:44:18.810Z,1019.5
2016-04-18T09:45:18.814Z,1019.46
2016-04-18T09:46:19.442Z,1019.51
2016-04-18T09:47:18.867Z,1019.53
2016-04-18T09:48:18.886Z,1019.51
2016-04-18T09:49:18.904Z,1019.46
2016-04-18T09:50:18.921Z,1019.47
2016-04-18T09:51:18.955Z,1019.48
2016-04-18T09:52:18.974Z,1019.5
2016-04-18T09:53:18.992Z,1019.47
2016-04-18T09:54:31.745Z,1019.42
2016-04-18T09:55:19.638Z,1019.44
2016-04-18T09:56:19.063Z,1019.47
2016-04-18T09:57:19.097Z,1019.47
2016-04-18T09:58:19.115Z,1019.47
2016-04-18T09:59:19.118Z,1019.42
2016-04-18T10:00:19.152Z,1019.43
2016-04-18T10:01:19.170Z,1019.42
2016-04-18T10:02:19.204Z,1019.44
2016-04-18T10:03:19.222Z,1019.39
2016-04-18T10:04:19.240Z,1019.45
2016-04-18T10:05:19.275Z,1019.44
2016-04-18T10:06:19.309Z,1019.45
2016-04-18T10:07:19.312Z,1019.48
2016-04-18T10:08:19.330Z,1019.46
2016-04-18T10:09:19.348Z,1019.42
2016-04-18T10:10:19.382Z,1019.45
2016-04-18T10:11:19.416Z,1019.38
2016-04-18T10:12:19.419Z,1019.36
2016-04-18T10:13:19.487Z,1019.36
2016-04-18T10:14:19.474Z,1019.39
2016-04-18T10:15:19.492Z,1019.39
2016-04-18T10:16:19.511Z,1019.42
2016-04-18T10:17:19.545Z,1019.4
2016-04-18T10:18:19.563Z,1019.34
2016-04-18T10:19:19.580Z,1019.37
2016-04-18T10:20:19.615Z,1019.35
2016-04-18T10:21:19.633Z,1019.34
2016-04-18T10:22:19.652Z,1019.36
2016-04-18T10:23:19.669Z,1019.34
2016-04-18T10:24:19.719Z,1019.35
2016-04-18T10:25:19.738Z,1019.34
2016-04-18T10:26:19.740Z,1019.32
2016-04-18T10:27:19.774Z,1019.33
2016-04-18T10:28:19.808Z,1019.35
2016-04-18T10:29:19.827Z,1019.34
2016-04-18T10:30:19.845Z,1019.37
2016-04-18T10:31:19.863Z,1019.34
2016-04-18T10:32:19.897Z,1019.3
2016-04-18T10:33:19.915Z,1019.31
2016-04-18T10:34:19.934Z,1019.3
2016-04-18T10:35:19.984Z,1019.26
2016-04-18T10:36:19.987Z,1019.22
2016-04-18T10:37:20.020Z,1019.27
2016-04-18T10:38:20.039Z,1019.35
2016-04-18T10:39:20.056Z,1019.22
2016-04-18T10:40:20.091Z,1019.22
2016-04-18T10:41:20.108Z,1019.22
2016-04-18T10:42:20.127Z,1019.26
2016-04-18T10:43:32.895Z,1019.3
2016-04-18T10:44:20.180Z,1019.27
2016-04-18T10:45:20.197Z,1019.25
2016-04-18T10:46:20.232Z,1019.26
2016-04-18T10:47:20.250Z,1019.24
2016-04-18T10:48:20.284Z,1019.24
2016-04-18T10:49:20.303Z,1019.18
2016-04-18T10:50:20.322Z,1019.18
2016-04-18T10:51:20.354Z,1019.21
2016-04-18T10:52:20.372Z,1019.18
2016-04-18T10:53:20.391Z,1019.17
2016-04-18T10:54:20.410Z,1019.29
2016-04-18T10:55:26.709Z,1019.21
2016-04-18T10:56:20.665Z,1019.23
2016-04-18T10:57:39.699Z,1019.23
2016-04-18T10:58:20.529Z,1019.24
2016-04-18T10:59:20.549Z,1019.16
2016-04-18T11:00:20.566Z,1019.19
2016-04-18T11:01:20.601Z,1019.21
2016-04-18T11:02:33.353Z,1019.22
2016-04-18T11:03:20.637Z,1019.25
2016-04-18T11:04:46.342Z,1019.24
2016-04-18T11:05:30.064Z,1019.23
2016-04-18T11:06:30.098Z,1019.18
2016-04-18T11:07:30.116Z,1019.23
2016-04-18T11:08:30.165Z,1019.2
2016-04-18T11:09:30.168Z,1019.19
2016-04-18T11:10:30.187Z,1019.26
2016-04-18T11:11:30.220Z,1019.25
2016-04-18T11:12:30.239Z,1019.23
2016-04-18T11:13:30.273Z,1019.2
2016-04-18T11:14:30.306Z,1019.17
2016-04-18T11:15:30.326Z,1019.21
2016-04-18T11:16:30.344Z,1019.2
2016-04-18T11:17:30.362Z,1019.11
2016-04-18T11:18:30.396Z,1019.18
2016-04-18T11:19:30.430Z,1019.13
2016-04-18T11:20:30.448Z,1019.09
2016-04-18T11:21:30.466Z,1019.16
2016-04-18T11:22:30.501Z,1019.14
2016-04-18T11:23:30.535Z,1019.1
2016-04-18T11:24:30.538Z,1019.07
2016-04-18T11:25:30.586Z,1019.08
2016-04-18T11:26:30.589Z,1019.09
2016-04-18T11:27:30.623Z,1018.99
2016-04-18T11:28:30.642Z,1018.98
2016-04-18T11:29:30.691Z,1019.05
2016-04-18T11:30:30.709Z,1019.08
2016-04-18T11:31:30.727Z,1019.09
2016-04-18T11:32:30.762Z,1019.12
2016-04-18T11:33:30.765Z,1018.97
2016-04-18T11:34:30.799Z,1019.06
2016-04-18T11:35:30.817Z,1019.03
2016-04-18T11:36:30.850Z,1018.98
2016-04-18T11:37:30.868Z,1019.04
2016-04-18T11:38:30.903Z,1019.03
2016-04-18T11:39:50.124Z,1019.06
2016-04-18T11:40:30.956Z,1019.06
2016-04-18T11:41:30.973Z,1019.14
2016-04-18T11:42:31.007Z,1019.07
2016-04-18T11:43:31.041Z,1019.06
2016-04-18T11:44:43.778Z,1018.98
2016-04-18T11:45:31.078Z,1019.06
2016-04-18T11:46:56.768Z,1019.06
2016-04-18T11:47:31.130Z,1019.11
2016-04-18T11:48:31.148Z,1019.05
2016-04-18T11:49:31.245Z,1018.92
2016-04-18T11:50:31.200Z,1018.97
2016-04-18T11:51:31.219Z,1018.94
2016-04-18T11:52:31.269Z,1019.03
2016-04-18T11:53:31.272Z,1019.04
2016-04-18T11:54:31.290Z,1019.04
2016-04-18T11:55:31.324Z,1019.07
2016-04-18T11:56:31.952Z,1019.04
2016-04-18T11:57:31.376Z,1018.94
2016-04-18T11:58:44.144Z,1019.03
2016-04-18T11:59:32.037Z,1019.01
2016-04-18T12:00:57.118Z,1019.02
2016-04-18T12:01:41.043Z,1019.02
2016-04-18T12:02:41.061Z,1019.04
2016-04-18T12:03:41.079Z,1019.04
2016-04-18T12:04:41.114Z,1019.05
2016-04-18T12:05:41.131Z,1019.03
2016-04-18T12:06:41.150Z,1018.96
2016-04-18T12:07:41.168Z,1019.02
2016-04-18T12:08:41.202Z,1018.99
2016-04-18T12:09:53.971Z,1019.05
2016-04-18T12:10:41.254Z,1019.1
2016-04-18T12:12:00.476Z,1019.12
2016-04-18T12:12:41.292Z,1019.1
2016-04-18T12:13:41.325Z,1019.06
2016-04-18T12:14:41.343Z,1018.95
2016-04-18T12:15:41.377Z,1019.07
2016-04-18T12:16:54.130Z,1019.04
2016-04-18T12:17:41.430Z,1019.07
2016-04-18T12:19:07.122Z,1019.04